Time;durP1;ratioP1;P1;durP2;ratioP2;P2;SDS_P1;SDS_P2;PMS_P1;PMS_P2;Temp;Humidity;BMP_temperature;BMP_pressure;BME280_temperature;BME280_humidity;BME280_pressure;Samples;Min_cycle;Max_cycle;Signal;HPM_P1;HPM_P2
2023/08/01 00:02:22;;;;;;;0.40;0.20;;;;;;;19.52;100.00;98908.16;5012129;28;20535;-50
2023/08/01 00:04:49;;;;;;;0.40;0.20;;;;;;;19.45;100.00;98901.59;5011917;28;21017;-49
2023/08/01 00:07:15;;;;;;;0.40;0.20;;;;;;;19.47;100.00;98905.03;5011976;28;20857;-50
2023/08/01 00:09:41;;;;;;;0.40;0.20;;;;;;;19.44;100.00;98895.34;5006641;28;20556;-50
2023/08/01 00:12:08;;;;;;;0.40;0.20;;;;;;;19.37;100.00;98898.72;5004003;28;20452;-50
2023/08/01 00:14:36;;;;;;;0.40;0.20;;;;;;;19.32;100.00;98896.41;5011867;28;20463;-50
2023/08/01 00:17:03;;;;;;;0.40;0.20;;;;;;;19.28;100.00;98900.38;5011932;28;20893;-49
2023/08/01 00:19:29;;;;;;;0.40;0.20;;;;;;;19.35;100.00;98889.91;5011878;28;20551;-50
2023/08/01 00:21:56;;;;;;;0.40;0.20;;;;;;;19.23;100.00;98890.00;5011901;28;20448;-50
2023/08/01 00:24:22;;;;;;;0.40;0.20;;;;;;;19.27;100.00;98874.41;5011647;28;20456;-50
2023/08/01 00:26:49;;;;;;;0.40;0.20;;;;;;;19.31;100.00;98869.59;5014758;28;20506;-50
2023/08/01 00:29:15;;;;;;;0.40;0.20;;;;;;;19.24;100.00;98858.50;5014952;28;20555;-50
2023/08/01 00:31:42;;;;;;;0.40;0.20;;;;;;;19.28;100.00;98845.63;5015628;28;20499;-50
2023/08/01 00:34:08;;;;;;;0.40;0.20;;;;;;;19.36;100.00;98846.66;5021358;28;20452;-50
2023/08/01 00:36:35;;;;;;;0.40;0.20;;;;;;;19.39;100.00;98851.78;5009656;28;20580;-50
2023/08/01 00:39:01;;;;;;;0.40;0.20;;;;;;;19.27;100.00;98866.31;5008850;28;20508;-50
2023/08/01 00:41:27;;;;;;;0.40;0.20;;;;;;;19.29;100.00;98874.28;5008037;28;20974;-50
2023/08/01 00:43:54;;;;;;;0.40;0.20;;;;;;;19.22;100.00;98872.13;5014871;28;20480;-50
2023/08/01 00:46:20;;;;;;;0.40;0.20;;;;;;;19.20;100.00;98851.69;5014909;28;20997;-50
2023/08/01 00:48:47;;;;;;;0.40;0.20;;;;;;;19.19;100.00;98847.31;5014997;28;20526;-50
2023/08/01 00:51:13;;;;;;;0.40;0.20;;;;;;;19.22;100.00;98839.78;5015051;28;20473;-50
2023/08/01 00:53:40;;;;;;;0.60;0.60;;;;;;;19.31;100.00;98845.34;5014785;28;21032;-50
2023/08/01 00:56:07;;;;;;;0.40;0.20;;;;;;;19.30;100.00;98822.94;5013679;28;20523;-50
2023/08/01 00:58:33;;;;;;;0.40;0.20;;;;;;;19.32;100.00;98814.72;5014557;28;20479;-50
2023/08/01 01:00:59;;;;;;;0.40;0.20;;;;;;;19.32;100.00;98810.19;5014942;28;20476;-50
2023/08/01 01:03:27;;;;;;;0.40;0.20;;;;;;;19.23;100.00;98803.78;5014727;28;20453;-49
2023/08/01 01:06:02;;;;;;;0.40;0.20;;;;;;;19.22;100.00;98804.78;5014737;28;20578;-50
2023/08/01 01:08:29;;;;;;;0.40;0.20;;;;;;;19.20;100.00;98814.84;5014573;28;20843;-50
2023/08/01 01:10:55;;;;;;;0.40;0.20;;;;;;;19.13;100.00;98802.88;5001123;28;20486;-50
2023/08/01 01:13:22;;;;;;;0.40;0.20;;;;;;;19.13;100.00;98794.78;5014551;28;20587;-50
2023/08/01 01:15:48;;;;;;;0.40;0.20;;;;;;;19.06;100.00;98801.72;5014366;28;21013;-49
2023/08/01 01:18:15;;;;;;;0.40;0.20;;;;;;;19.08;100.00;98794.34;5014586;28;20556;-50
2023/08/01 01:20:41;;;;;;;0.40;0.20;;;;;;;19.22;100.00;98785.91;5014452;28;20476;-50
2023/08/01 01:23:09;;;;;;;0.40;0.20;;;;;;;19.13;100.00;98796.63;5014442;28;20481;-50
2023/08/01 01:25:37;;;;;;;0.40;0.20;;;;;;;19.17;100.00;98776.50;5013991;28;20896;-50
2023/08/01 01:28:08;;;;;;;0.40;0.20;;;;;;;19.32;100.00;98768.91;5013973;28;20468;-50
2023/08/01 01:30:35;;;;;;;0.40;0.20;;;;;;;19.19;100.00;98747.63;5014102;28;20449;-48
2023/08/01 01:33:03;;;;;;;0.40;0.20;;;;;;;19.22;100.00;98721.25;5014144;28;21021;-48
2023/08/01 01:35:32;;;;;;;0.40;0.20;;;;;;;19.22;100.00;98709.63;5023476;28;20445;-48
2023/08/01 01:38:03;;;;;;;0.40;0.20;;;;;;;19.23;100.00;98696.00;5005025;28;20472;-49
2023/08/01 01:40:30;;;;;;;0.40;0.30;;;;;;;19.21;100.00;98681.81;4999435;28;20423;-48
2023/08/01 01:42:57;;;;;;;0.40;0.20;;;;;;;19.20;100.00;98699.00;5009716;28;20899;-48
2023/08/01 01:45:23;;;;;;;0.40;0.30;;;;;;;19.15;100.00;98703.91;4999602;28;20583;-48
2023/08/01 01:47:50;;;;;;;0.40;0.20;;;;;;;19.14;100.00;98707.59;5013847;28;20488;-48
2023/08/01 01:50:17;;;;;;;0.40;0.20;;;;;;;19.08;100.00;98708.16;5013847;28;20815;-48
2023/08/01 01:52:44;;;;;;;0.40;0.20;;;;;;;18.94;100.00;98697.75;5013688;28;20487;-48
2023/08/01 01:55:11;;;;;;;0.40;0.20;;;;;;;19.04;100.00;98693.25;5013637;28;21009;-48
2023/08/01 01:57:38;;;;;;;0.40;0.20;;;;;;;19.10;100.00;98673.00;5013816;28;20543;-49
2023/08/01 02:00:05;;;;;;;0.40;0.20;;;;;;;18.99;100.00;98655.09;5013701;28;20452;-48
2023/08/01 02:02:31;;;;;;;0.40;0.20;;;;;;;19.12;100.00;98662.94;5013479;28;20957;-49
2023/08/01 02:04:58;;;;;;;0.40;0.20;;;;;;;18.89;100.00;98684.69;5013399;28;20464;-50
2023/08/01 02:07:24;;;;;;;0.40;0.20;;;;;;;18.94;100.00;98682.44;5013398;28;20503;-50
2023/08/01 02:09:51;;;;;;;0.40;0.20;;;;;;;18.84;100.00;98668.09;5006204;28;20908;-50
2023/08/01 02:12:17;;;;;;;0.40;0.20;;;;;;;18.97;100.00;98658.94;5007643;28;20543;-49
2023/08/01 02:14:44;;;;;;;0.40;0.20;;;;;;;18.97;100.00;98645.47;5013417;28;20548;-49
2023/08/01 02:17:11;;;;;;;0.40;0.20;;;;;;;18.97;100.00;98635.53;5013391;28;20449;-50
2023/08/01 02:19:37;;;;;;;0.40;0.20;;;;;;;19.13;100.00;98619.69;5013161;28;20558;-49
2023/08/01 02:22:04;;;;;;;0.40;0.20;;;;;;;19.14;100.00;98591.75;5013111;28;20555;-49
2023/08/01 02:24:30;;;;;;;0.40;0.20;;;;;;;19.26;100.00;98587.09;5013340;28;20544;-49
2023/08/01 02:26:57;;;;;;;0.40;0.20;;;;;;;19.26;100.00;98564.69;5013024;28;20480;-50
2023/08/01 02:29:23;;;;;;;0.40;0.20;;;;;;;19.12;100.00;98598.28;5012867;28;21076;-49
2023/08/01 02:31:50;;;;;;;0.40;0.20;;;;;;;19.10;100.00;98624.53;5013182;28;20539;-48
2023/08/01 02:34:16;;;;;;;0.40;0.20;;;;;;;19.10;100.00;98627.22;5019688;28;20534;-48
2023/08/01 02:36:43;;;;;;;0.40;0.20;;;;;;;19.03;100.00;98628.75;5006165;28;20865;-48
2023/08/01 02:39:09;;;;;;;0.40;0.20;;;;;;;19.09;100.00;98622.81;5006127;28;20512;-48
2023/08/01 02:41:35;;;;;;;0.40;0.20;;;;;;;19.02;100.00;98617.13;5006972;28;20539;-48
2023/08/01 02:44:02;;;;;;;0.40;0.20;;;;;;;19.11;100.00;98618.13;5013103;28;20532;-50
2023/08/01 02:46:29;;;;;;;0.40;0.20;;;;;;;19.11;100.00;98628.91;5012784;28;20571;-48
2023/08/01 02:48:56;;;;;;;0.40;0.20;;;;;;;19.15;100.00;98628.47;5011920;28;20607;-50
2023/08/01 02:51:22;;;;;;;0.40;0.20;;;;;;;19.20;100.00;98628.09;5012928;28;20480;-48
2023/08/01 02:53:49;;;;;;;0.40;0.20;;;;;;;19.14;100.00;98640.25;5012839;28;20993;-48
2023/08/01 02:56:15;;;;;;;0.40;0.20;;;;;;;19.23;100.00;98642.13;5012875;28;20532;-48
2023/08/01 02:58:42;;;;;;;0.40;0.20;;;;;;;19.24;100.00;98643.81;5012786;28;20473;-48
2023/08/01 03:01:10;;;;;;;0.40;0.20;;;;;;;19.09;100.00;98655.13;5012521;28;20514;-48
2023/08/01 03:03:36;;;;;;;0.40;0.20;;;;;;;19.06;100.00;98675.13;5013115;28;20456;-50
2023/08/01 03:06:03;;;;;;;0.40;0.20;;;;;;;19.10;100.00;98673.84;5012470;28;20858;-50
2023/08/01 03:08:30;;;;;;;0.40;0.20;;;;;;;19.12;100.00;98679.94;5012918;28;20559;-47
2023/08/01 03:10:57;;;;;;;0.40;0.20;;;;;;;19.02;100.00;98675.50;4999472;28;20536;-50
2023/08/01 03:13:24;;;;;;;0.40;0.20;;;;;;;19.06;100.00;98676.97;5012615;28;20452;-50
2023/08/01 03:15:50;;;;;;;0.40;0.20;;;;;;;18.99;100.00;98678.50;5012348;28;20531;-48
2023/08/01 03:18:17;;;;;;;0.40;0.20;;;;;;;19.02;100.00;98676.38;5012423;28;21041;-48
2023/08/01 03:20:43;;;;;;;0.40;0.20;;;;;;;18.96;100.00;98671.53;5012585;28;20463;-48
2023/08/01 03:23:10;;;;;;;0.40;0.20;;;;;;;19.01;100.00;98633.41;5012641;28;20878;-48
2023/08/01 03:25:36;;;;;;;0.40;0.20;;;;;;;19.12;100.00;98614.44;5012321;28;20576;-49
2023/08/01 03:28:04;;;;;;;0.40;0.20;;;;;;;18.99;100.00;98668.56;5012174;28;20573;-49
2023/08/01 03:30:33;;;;;;;0.40;0.20;;;;;;;19.00;100.00;98655.94;5012219;28;20452;-48
2023/08/01 03:33:02;;;;;;;0.40;0.20;;;;;;;18.97;100.00;98665.16;5012517;28;20546;-48
2023/08/01 03:35:29;;;;;;;0.40;0.20;;;;;;;18.95;100.00;98656.38;5012243;28;20453;-48
2023/08/01 03:37:55;;;;;;;0.40;0.20;;;;;;;19.03;100.00;98653.81;5012206;28;20464;-48
2023/08/01 03:40:23;;;;;;;0.40;0.20;;;;;;;18.94;100.00;98646.59;4998978;28;20508;-48
2023/08/01 03:42:49;;;;;;;0.40;0.20;;;;;;;18.92;100.00;98637.81;5000110;28;20453;-48
2023/08/01 03:45:16;;;;;;;0.40;0.20;;;;;;;19.03;100.00;98634.97;5009450;28;20492;-48
2023/08/01 03:47:42;;;;;;;0.40;0.20;;;;;;;19.10;100.00;98629.91;5011961;28;21041;-48
2023/08/01 03:50:09;;;;;;;0.40;0.20;;;;;;;19.17;100.00;98628.34;5012271;28;20869;-49
2023/08/01 03:52:35;;;;;;;0.40;0.20;;;;;;;19.19;100.00;98629.94;5013274;28;20543;-49
2023/08/01 03:55:02;;;;;;;0.40;0.20;;;;;;;18.96;100.00;98633.84;5012036;28;20808;-49
2023/08/01 03:57:28;;;;;;;0.40;0.20;;;;;;;19.03;100.00;98629.59;5011941;28;20898;-49
2023/08/01 03:59:55;;;;;;;0.40;0.20;;;;;;;18.94;100.00;98628.59;5013578;28;20469;-49
2023/08/01 04:02:21;;;;;;;0.40;0.20;;;;;;;18.96;100.00;98624.91;5015769;28;20551;-49
2023/08/01 04:04:48;;;;;;;0.40;0.20;;;;;;;19.08;100.00;98629.19;5015957;28;20495;-49
2023/08/01 04:07:14;;;;;;;0.40;0.20;;;;;;;19.09;100.00;98636.28;5016000;28;21071;-50
2023/08/01 04:09:41;;;;;;;0.40;0.20;;;;;;;19.07;100.00;98636.44;5010592;28;20970;-49
2023/08/01 04:12:07;;;;;;;0.40;0.20;;;;;;;19.02;100.00;98633.28;5007323;28;20453;-49
2023/08/01 04:14:34;;;;;;;0.40;0.20;;;;;;;18.92;100.00;98635.13;5015651;28;20448;-50
2023/08/01 04:17:01;;;;;;;0.40;0.20;;;;;;;18.92;100.00;98635.13;5015814;28;20452;-49
2023/08/01 04:19:27;;;;;;;0.40;0.20;;;;;;;18.97;100.00;98635.53;5015751;28;20556;-48
2023/08/01 04:21:54;;;;;;;0.40;0.20;;;;;;;19.03;100.00;98634.13;5015439;28;20514;-48
2023/08/01 04:24:20;;;;;;;0.40;0.20;;;;;;;19.04;100.00;98636.69;5015580;28;20449;-48
2023/08/01 04:26:47;;;;;;;0.40;0.20;;;;;;;18.92;100.00;98635.13;5015107;28;20559;-48
2023/08/01 04:29:15;;;;;;;0.40;0.20;;;;;;;18.82;100.00;98632.38;5015062;28;20484;-48
2023/08/01 04:31:41;;;;;;;0.40;0.20;;;;;;;18.55;100.00;98641.03;5015257;28;20456;-48
2023/08/01 04:34:08;;;;;;;0.40;0.20;;;;;;;18.67;100.00;98633.75;5021192;28;20490;-48
2023/08/01 04:36:34;;;;;;;0.40;0.20;;;;;;;18.78;100.00;98632.81;5009899;28;20454;-48
2023/08/01 04:39:01;;;;;;;0.40;0.20;;;;;;;18.94;100.00;98625.06;5008397;28;20520;-48
2023/08/01 04:41:27;;;;;;;0.40;0.20;;;;;;;19.01;100.00;98587.63;5007941;28;20453;-48
2023/08/01 04:43:54;;;;;;;0.40;0.20;;;;;;;18.83;100.00;98574.00;5015377;28;20452;-48
2023/08/01 04:46:20;;;;;;;0.40;0.20;;;;;;;18.92;100.00;98557.03;5015192;28;20488;-48
2023/08/01 04:48:47;;;;;;;0.40;0.20;;;;;;;18.97;100.00;98557.44;5014648;28;20969;-49
2023/08/01 04:51:13;;;;;;;0.40;0.20;;;;;;;18.88;100.00;98558.28;5015077;28;20478;-49
2023/08/01 04:53:40;;;;;;;0.40;0.20;;;;;;;19.19;100.00;98554.50;5014876;28;20449;-49
2023/08/01 04:56:06;;;;;;;0.40;0.20;;;;;;;19.26;100.00;98556.63;5014982;28;20455;-50
2023/08/01 04:58:33;;;;;;;0.40;0.20;;;;;;;19.16;100.00;98553.91;5001906;28;20559;-49
2023/08/01 05:00:59;;;;;;;0.40;0.20;;;;;;;19.29;100.00;98553.63;5014830;28;20495;-48
2023/08/01 05:03:26;;;;;;;0.40;0.20;;;;;;;19.47;100.00;98584.28;5014796;28;20965;-49
2023/08/01 05:05:52;;;;;;;0.40;0.20;;;;;;;19.51;100.00;98586.56;5014609;28;20528;-49
2023/08/01 05:08:19;;;;;;;0.40;0.20;;;;;;;19.49;100.00;98591.25;5014414;28;21050;-48
2023/08/01 05:10:45;;;;;;;0.40;0.20;;;;;;;19.22;100.00;98596.47;5000723;28;20457;-49
2023/08/01 05:13:12;;;;;;;0.40;0.20;;;;;;;19.37;100.00;98595.06;5014703;28;20541;-49
2023/08/01 05:15:38;;;;;;;0.40;0.20;;;;;;;19.36;100.00;98597.91;5014488;28;20528;-48
2023/08/01 05:18:04;;;;;;;0.40;0.20;;;;;;;19.57;100.00;98595.09;5014493;28;20515;-48
2023/08/01 05:20:33;;;;;;;0.40;0.20;;;;;;;19.48;100.00;98592.22;5014425;28;20539;-49
2023/08/01 05:22:59;;;;;;;0.40;0.20;;;;;;;19.54;100.00;98580.03;5014219;28;20981;-49
2023/08/01 05:25:26;;;;;;;0.40;0.20;;;;;;;19.49;100.00;98591.25;5014424;28;20448;-48
2023/08/01 05:27:53;;;;;;;0.40;0.20;;;;;;;19.46;100.00;98604.13;5013994;28;20484;-48
2023/08/01 05:30:19;;;;;;;0.40;0.20;;;;;;;19.34;100.00;98589.97;5014269;28;20802;-49
2023/08/01 05:32:49;;;;;;;0.40;0.20;;;;;;;19.21;100.00;98582.16;5014228;28;20540;-48
2023/08/01 05:35:16;;;;;;;0.40;0.20;;;;;;;19.17;100.00;98591.47;5025363;28;20449;-49
2023/08/01 05:37:43;;;;;;;0.40;0.20;;;;;;;19.40;100.00;98584.00;5002884;28;20860;-50
2023/08/01 05:40:10;;;;;;;0.40;0.20;;;;;;;19.35;100.00;98597.06;5001166;28;20874;-49
2023/08/01 05:42:37;;;;;;;0.40;0.20;;;;;;;19.29;100.00;98604.81;5013895;28;21021;-49
2023/08/01 05:45:06;;;;;;;0.40;0.20;;;;;;;19.58;100.00;98594.09;5013869;28;21056;-49
2023/08/01 05:47:34;;;;;;;0.40;0.20;;;;;;;19.52;100.00;98598.19;5012585;28;21084;-49
2023/08/01 05:50:01;;;;;;;0.40;0.20;;;;;;;19.40;100.00;98602.00;5013691;28;20473;-49
2023/08/01 05:52:27;;;;;;;1.27;0.73;;;;;;;19.40;100.00;98596.63;5013668;28;20506;-49
2023/08/01 05:54:53;;;;;;;0.40;0.20;;;;;;;19.24;100.00;98576.47;5013675;28;20990;-49
2023/08/01 05:57:20;;;;;;;0.40;0.20;;;;;;;19.30;100.00;98583.13;5013828;28;20536;-49
2023/08/01 05:59:46;;;;;;;0.40;0.20;;;;;;;19.17;100.00;98606.78;5013609;28;20480;-49
2023/08/01 06:02:13;;;;;;;0.40;0.20;;;;;;;19.19;100.00;98616.47;5013590;28;21019;-49
2023/08/01 06:04:39;;;;;;;0.50;0.40;;;;;;;19.25;100.00;98612.34;5013353;28;20531;-49
2023/08/01 06:07:06;;;;;;;0.40;0.20;;;;;;;19.44;100.00;98615.03;5013608;28;20488;-49
2023/08/01 06:09:32;;;;;;;0.40;0.20;;;;;;;19.44;100.00;98616.88;5009788;28;20452;-48
2023/08/01 06:11:59;;;;;;;0.40;0.20;;;;;;;19.49;100.00;98602.03;5004022;28;20491;-48
2023/08/01 06:14:25;;;;;;;0.40;0.20;;;;;;;19.59;100.00;98610.13;5013297;28;20795;-49
2023/08/01 06:16:52;;;;;;;0.40;0.20;;;;;;;19.35;100.00;98620.44;5013437;28;20548;-48
2023/08/01 06:19:18;;;;;;;0.40;0.20;;;;;;;19.41;100.00;98622.56;5013026;28;21047;-49
2023/08/01 06:21:45;;;;;;;0.40;0.20;;;;;;;19.35;100.00;98624.00;5013222;28;20981;-48
2023/08/01 06:24:11;;;;;;;0.40;0.20;;;;;;;19.08;100.00;98631.88;5013202;28;20888;-49
2023/08/01 06:26:38;;;;;;;0.40;0.20;;;;;;;19.43;100.00;98642.13;5013107;28;20595;-49
2023/08/01 06:29:05;;;;;;;0.40;0.20;;;;;;;19.17;100.00;98674.13;5012902;28;20538;-49
2023/08/01 06:31:31;;;;;;;0.40;0.20;;;;;;;19.03;100.00;98678.06;5013172;28;20449;-49
2023/08/01 06:33:57;;;;;;;0.40;0.20;;;;;;;18.94;100.00;98681.59;5017357;28;20435;-49
2023/08/01 06:36:24;;;;;;;0.40;0.20;;;;;;;18.66;100.00;98675.09;5010762;28;20488;-49
2023/08/01 06:38:50;;;;;;;0.40;0.20;;;;;;;19.09;100.00;98676.69;5006312;28;20469;-49
2023/08/01 06:41:17;;;;;;;0.40;0.20;;;;;;;18.97;100.00;98678.63;5004572;28;20556;-50
2023/08/01 06:43:43;;;;;;;0.40;0.20;;;;;;;19.13;100.00;98683.50;5013074;28;20547;-48
2023/08/01 06:46:10;;;;;;;0.40;0.20;;;;;;;18.98;100.00;98691.09;5012896;28;20539;-49
2023/08/01 06:48:36;;;;;;;0.40;0.20;;;;;;;18.99;100.00;98684.72;5012449;28;20472;-48
2023/08/01 06:51:03;;;;;;;0.40;0.20;;;;;;;19.10;100.00;98695.41;5012976;28;20452;-48
2023/08/01 06:53:29;;;;;;;0.40;0.20;;;;;;;19.16;100.00;98697.53;5012796;28;20543;-49
2023/08/01 06:55:57;;;;;;;0.40;0.20;;;;;;;19.28;100.00;98700.97;5012921;28;20523;-49
2023/08/01 06:58:23;;;;;;;0.40;0.20;;;;;;;19.58;100.00;98702.75;5013730;28;20443;-48
2023/08/01 07:00:50;;;;;;;0.40;0.20;;;;;;;19.49;100.00;98706.28;5013023;28;20452;-48
2023/08/01 07:03:16;;;;;;;0.40;0.20;;;;;;;19.72;100.00;98705.06;5012697;28;20537;-48
2023/08/01 07:05:43;;;;;;;0.40;0.20;;;;;;;19.59;100.00;98712.56;5012816;28;20523;-49
2023/08/01 07:08:10;;;;;;;0.40;0.20;;;;;;;19.81;100.00;98714.16;5012483;28;20590;-49
2023/08/01 07:10:37;;;;;;;0.40;0.20;;;;;;;19.75;100.00;98712.03;5000162;28;20449;-48
2023/08/01 07:13:04;;;;;;;0.40;0.20;;;;;;;20.08;100.00;98713.44;5011905;28;20484;-49
2023/08/01 07:15:34;;;;;;;0.40;0.20;;;;;;;19.86;100.00;98716.41;5012370;28;20487;-49
2023/08/01 07:18:00;;;;;;;0.40;0.20;;;;;;;19.77;100.00;98710.88;4993128;28;20477;-49
2023/08/01 07:20:27;;;;;;;0.40;0.20;;;;;;;19.78;100.00;98720.69;5006064;28;20452;-49
2023/08/01 07:22:54;;;;;;;0.40;0.20;;;;;;;19.93;100.00;98736.44;4999674;28;20496;-48
2023/08/01 07:25:20;;;;;;;0.40;0.20;;;;;;;19.86;100.00;98730.75;5012496;28;20448;-49
2023/08/01 07:27:46;;;;;;;0.40;0.20;;;;;;;19.94;100.00;98738.16;5012308;28;20715;-49
2023/08/01 07:30:13;;;;;;;0.40;0.20;;;;;;;19.94;100.00;98740.84;5012710;28;20502;-50
2023/08/01 07:32:39;;;;;;;0.40;0.20;;;;;;;20.00;100.00;98733.03;5012504;28;20535;-51
2023/08/01 07:35:07;;;;;;;0.40;0.20;;;;;;;20.22;100.00;98733.75;5014612;28;20453;-51
2023/08/01 07:37:33;;;;;;;0.40;0.30;;;;;;;20.49;100.00;98733.03;5016156;28;20447;-51
2023/08/01 07:40:00;;;;;;;0.40;0.20;;;;;;;20.52;100.00;98739.00;5003025;28;20564;-51
2023/08/01 07:42:26;;;;;;;0.40;0.20;;;;;;;20.65;100.00;98736.84;5016414;28;20814;-51
2023/08/01 07:44:53;;;;;;;0.40;0.20;;;;;;;20.88;100.00;98734.63;5016015;28;20503;-50
2023/08/01 07:47:20;;;;;;;0.40;0.20;;;;;;;21.21;100.00;98740.47;5016421;28;20557;-51
2023/08/01 07:49:46;;;;;;;0.40;0.20;;;;;;;21.22;100.00;98748.44;5016059;28;20468;-51
2023/08/01 07:52:13;;;;;;;0.40;0.20;;;;;;;21.91;100.00;98748.91;5016321;28;20483;-51
2023/08/01 07:54:39;;;;;;;0.40;0.20;;;;;;;22.07;99.90;98749.97;5015936;28;20530;-51
2023/08/01 07:57:06;;;;;;;0.40;0.20;;;;;;;21.95;99.70;98759.31;5015956;28;20959;-50
2023/08/01 07:59:33;;;;;;;0.40;0.20;;;;;;;22.55;98.18;98758.66;5016067;28;20497;-51
2023/08/01 08:01:59;;;;;;;0.40;0.20;;;;;;;22.58;94.94;98764.63;5016214;28;20491;-51
2023/08/01 08:04:26;;;;;;;0.40;0.20;;;;;;;22.06;92.17;98764.50;5016016;28;20455;-51
2023/08/01 08:06:54;;;;;;;0.40;0.20;;;;;;;21.94;92.64;98773.00;5015915;28;20571;-51
2023/08/01 08:09:22;;;;;;;0.40;0.20;;;;;;;21.86;93.31;98762.91;5013554;28;20976;-50
2023/08/01 08:11:50;;;;;;;0.43;0.20;;;;;;;21.80;92.88;98766.25;5005262;28;20940;-51
2023/08/01 08:14:17;;;;;;;0.50;0.20;;;;;;;22.25;93.32;98773.47;5016122;28;20510;-50
2023/08/01 08:16:43;;;;;;;0.40;0.20;;;;;;;21.99;94.29;98771.50;5015777;28;20990;-51
2023/08/01 08:19:10;;;;;;;0.40;0.20;;;;;;;22.09;94.76;98775.03;5015499;28;20496;-50
2023/08/01 08:21:37;;;;;;;0.40;0.20;;;;;;;22.30;91.76;98779.28;5015683;28;20457;-51
2023/08/01 08:24:03;;;;;;;0.40;0.20;;;;;;;22.64;89.29;98774.00;5015455;28;20433;-50
2023/08/01 08:26:31;;;;;;;0.40;0.20;;;;;;;22.12;83.53;98785.53;5015206;28;20439;-50
2023/08/01 08:28:57;;;;;;;0.40;0.20;;;;;;;22.20;83.91;98783.91;5015395;28;20538;-50
2023/08/01 08:31:24;;;;;;;0.40;0.20;;;;;;;22.56;81.71;98790.16;5015591;28;20460;-50
2023/08/01 08:33:50;;;;;;;0.40;0.20;;;;;;;22.58;82.14;98782.72;5018653;28;21024;-50
2023/08/01 08:36:17;;;;;;;0.50;0.20;;;;;;;22.70;84.29;98795.03;5013821;28;20453;-50
2023/08/01 08:38:43;;;;;;;0.40;0.20;;;;;;;23.12;82.88;98787.03;5008365;28;20528;-51
2023/08/01 08:41:14;;;;;;;0.40;0.20;;;;;;;22.57;81.75;98794.56;5005883;28;20999;-51
2023/08/01 08:43:41;;;;;;;0.40;0.20;;;;;;;23.09;82.32;98790.06;5015418;28;20859;-51
2023/08/01 08:46:09;;;;;;;0.50;0.20;;;;;;;23.21;84.07;98796.06;5014134;28;20506;-51
2023/08/01 08:48:37;;;;;;;0.50;0.20;;;;;;;23.10;80.72;98799.91;5014973;28;20471;-51
2023/08/01 08:51:06;;;;;;;0.50;0.20;;;;;;;22.86;80.78;98797.03;5015183;28;20531;-50
2023/08/01 08:53:33;;;;;;;0.50;0.20;;;;;;;22.29;77.48;98797.38;5014906;28;21032;-50
2023/08/01 08:56:01;;;;;;;0.50;0.30;;;;;;;22.28;78.91;98811.91;5015135;28;20494;-50
2023/08/01 08:58:31;;;;;;;0.40;0.20;;;;;;;22.14;79.13;98816.00;5014922;28;20482;-50
2023/08/01 09:01:01;;;;;;;0.50;0.20;;;;;;;22.55;78.05;98802.84;5014812;28;20430;-51
2023/08/01 09:03:29;;;;;;;0.47;0.20;;;;;;;22.82;76.57;98801.88;5014757;28;20457;-50
2023/08/01 09:06:04;;;;;;;0.40;0.20;;;;;;;22.88;76.64;98803.97;5014631;28;20459;-51
2023/08/01 09:08:35;;;;;;;0.40;0.20;;;;;;;22.84;76.19;98804.47;5014598;28;20990;-51
2023/08/01 09:11:01;;;;;;;0.50;0.30;;;;;;;23.22;77.45;98811.34;5001538;28;20467;-50
2023/08/01 09:13:28;;;;;;;0.40;0.20;;;;;;;23.38;76.06;98794.28;5014193;28;20428;-50
2023/08/01 09:15:56;;;;;;;0.50;0.20;;;;;;;23.28;75.60;98794.41;5014586;28;20456;-50
2023/08/01 09:18:22;;;;;;;0.50;0.20;;;;;;;23.51;71.66;98797.41;5014381;28;20443;-50
2023/08/01 09:20:49;;;;;;;0.50;0.20;;;;;;;23.47;72.46;98798.75;5014461;28;20447;-51
2023/08/01 09:23:17;;;;;;;0.50;0.30;;;;;;;23.27;72.39;98803.56;5014320;28;20477;-51
2023/08/01 09:25:44;;;;;;;0.50;0.30;;;;;;;23.62;71.99;98802.59;5013979;28;20424;-50
2023/08/01 09:28:21;;;;;;;0.50;0.30;;;;;;;23.94;73.12;98799.97;5013969;28;20572;-50
2023/08/01 09:30:55;;;;;;;0.50;0.20;;;;;;;23.97;71.59;98819.66;5013983;28;21009;-50
2023/08/01 09:33:22;;;;;;;0.50;0.20;;;;;;;24.10;69.41;98798.31;5014292;28;20444;-50
2023/08/01 09:35:51;;;;;;;0.40;0.20;;;;;;;23.62;69.19;98810.72;5020968;28;20461;-50
2023/08/01 09:38:18;;;;;;;0.50;0.20;;;;;;;23.90;68.91;98809.47;5007577;28;20493;-50
2023/08/01 09:40:47;;;;;;;0.50;0.20;;;;;;;23.04;69.36;98820.38;4999862;28;20916;-50
2023/08/01 09:43:14;;;;;;;0.50;0.20;;;;;;;23.14;70.74;98814.84;5006265;28;20535;-50
2023/08/01 09:45:51;;;;;;;0.50;0.23;;;;;;;23.64;69.59;98828.53;5001800;28;20448;-50
2023/08/01 09:48:29;;;;;;;0.50;0.20;;;;;;;23.64;69.27;98838.53;5013824;28;20466;-50
2023/08/01 09:51:17;;;;;;;0.50;0.20;;;;;;;23.94;66.52;98837.13;5014048;28;20447;-51
2023/08/01 09:53:48;;;;;;;0.50;0.20;;;;;;;23.72;67.91;98840.44;5013841;28;20927;-50
2023/08/01 09:56:17;;;;;;;0.40;0.20;;;;;;;23.57;69.62;98829.31;5013980;28;20503;-50
2023/08/01 09:58:45;;;;;;;0.40;0.20;;;;;;;23.99;67.85;98831.22;5013511;28;20522;-51
2023/08/01 10:01:16;;;;;;;0.50;0.20;;;;;;;23.96;67.83;98828.81;5013723;28;20510;-51
2023/08/01 10:03:51;;;;;;;0.40;0.20;;;;;;;24.22;66.28;98835.84;5013795;28;20514;-51
2023/08/01 10:06:20;;;;;;;0.43;0.30;;;;;;;23.99;66.44;98845.66;5013582;28;21087;-51
2023/08/01 10:08:48;;;;;;;0.50;0.20;;;;;;;23.75;64.59;98840.97;5013357;28;20960;-51
2023/08/01 10:11:17;;;;;;;0.40;0.20;;;;;;;23.83;65.32;98842.84;5000534;28;20958;-51
2023/08/01 10:13:44;;;;;;;0.50;0.23;;;;;;;24.00;63.85;98850.06;5013713;28;20970;-51
2023/08/01 10:16:12;;;;;;;0.50;0.20;;;;;;;24.01;64.10;98827.31;5013311;28;20881;-51
2023/08/01 10:18:39;;;;;;;0.40;0.20;;;;;;;23.85;60.96;98847.13;5013273;28;20956;-51
2023/08/01 10:21:07;;;;;;;0.40;0.20;;;;;;;24.03;64.90;98854.31;5013175;28;20917;-51
2023/08/01 10:23:34;;;;;;;0.40;0.20;;;;;;;23.92;63.41;98852.72;5013521;28;20517;-51
2023/08/01 10:26:04;;;;;;;0.40;0.20;;;;;;;23.92;64.40;98853.59;5013415;28;20515;-51
2023/08/01 10:28:39;;;;;;;0.50;0.30;;;;;;;24.12;61.47;98856.00;5012815;28;20502;-51
2023/08/01 10:31:09;;;;;;;0.50;0.20;;;;;;;24.12;63.18;98859.59;5013218;28;20433;-51
2023/08/01 10:33:37;;;;;;;0.50;0.27;;;;;;;23.98;63.73;98867.50;5014385;28;20469;-51
2023/08/01 10:36:22;;;;;;;0.63;0.63;;;;;;;24.05;62.88;98863.97;5015835;28;20536;-51
2023/08/01 10:38:54;;;;;;;0.40;0.20;;;;;;;23.59;62.61;98874.31;5006241;28;20473;-51
2023/08/01 10:41:29;;;;;;;0.50;0.20;;;;;;;23.35;63.39;98866.84;5005444;28;20455;-51
2023/08/01 10:44:09;;;;;;;0.40;0.20;;;;;;;23.26;63.91;98877.78;5006420;28;20427;-51
2023/08/01 10:46:58;;;;;;;0.50;0.30;;;;;;;23.37;62.02;98872.09;5008381;28;20454;-51
2023/08/01 10:49:42;;;;;;;0.40;0.20;;;;;;;24.00;61.74;98873.66;5012906;28;20495;-51
2023/08/01 10:52:26;;;;;;;0.50;0.30;;;;;;;23.92;61.05;98863.59;5012671;28;20510;-51
2023/08/01 10:54:59;;;;;;;0.50;0.20;;;;;;;24.11;62.54;98868.75;5012865;28;20480;-51
2023/08/01 10:57:30;;;;;;;0.40;0.20;;;;;;;24.44;60.15;98863.44;5012930;28;20448;-51
2023/08/01 10:59:58;;;;;;;0.50;0.20;;;;;;;24.23;59.87;98862.00;5012558;28;20530;-51
2023/08/01 11:02:30;;;;;;;0.40;0.20;;;;;;;24.54;61.37;98861.44;5012672;28;20427;-51
2023/08/01 11:05:04;;;;;;;0.43;0.20;;;;;;;24.88;59.44;98865.84;5012827;28;20437;-51
2023/08/01 11:07:31;;;;;;;0.50;0.20;;;;;;;25.03;59.48;98873.19;5012745;28;20475;-51
2023/08/01 11:10:05;;;;;;;0.50;0.30;;;;;;;25.34;58.36;98865.16;5005461;28;20452;-51
2023/08/01 11:12:40;;;;;;;0.47;0.20;;;;;;;25.13;56.70;98874.88;5006897;28;20444;-51
2023/08/01 11:15:09;;;;;;;0.50;0.20;;;;;;;24.72;58.98;98863.97;5012463;28;20881;-51
2023/08/01 11:17:37;;;;;;;0.50;0.20;;;;;;;24.88;60.28;98857.69;5012570;28;20431;-51
2023/08/01 11:20:23;;;;;;;0.50;0.20;;;;;;;24.47;58.95;98871.25;5012517;28;20468;-51
2023/08/01 11:22:57;;;;;;;0.50;0.30;;;;;;;24.50;55.91;98879.06;5012100;28;20427;-51
2023/08/01 11:25:39;;;;;;;0.50;0.30;;;;;;;23.70;59.94;98864.16;5012534;28;20440;-51
2023/08/01 11:28:08;;;;;;;0.50;0.30;;;;;;;23.94;64.22;98869.69;5012073;28;20473;-51
2023/08/01 11:30:36;;;;;;;0.50;0.20;;;;;;;23.91;63.68;98872.75;5012211;28;20448;-51